Urb Arcos En Suchville, Puerto Rico
Current Conditions -  °F | °C
As of 4:56 PM on Tuesday 25 Nov 2014 (Local Time) from TJSJ Reporting Station
Broken Clouds Broken Clouds  
Wind Chill: 82°   Ceiling: 8500
Heat Index: 87°   Visibility: 10mi
Dew Point: 73°   Wind: 17mph
Humidity: 74%   Direction: 70°ENE
Pressure: 30"   Gusts: 22mph
Location:  18.3882°N, 66.1144°W
Report Text: TJSJ 252056Z 07015G19KT 10SM SCT029 SCT060 BKN085 28/23 A3000 RMK AO2 SLP158 60004 T02780228 55006
Loading
Personal Weather Stations






























Interactive Weather Map New forecast layout! Learn more

10-Day Weather Forecast

Advertisements
Track Severe Weather on mobile